createdAt,value
2018-08-03T00:01:36.084Z,65.54
2018-08-03T00:06:20.805Z,65.45
2018-08-03T00:11:04.294Z,64.52
2018-08-03T00:15:51.824Z,66.42
2018-08-03T00:20:35.194Z,66.67
2018-08-03T00:25:18.865Z,66.13
2018-08-03T00:30:06.456Z,65.58
2018-08-03T00:34:50.826Z,66.57
2018-08-03T00:39:37.344Z,67.03
2018-08-03T00:44:20.965Z,67.33
2018-08-03T00:49:09.027Z,67.98
2018-08-03T00:53:52.648Z,66.53
2018-08-03T00:58:37.162Z,66.72
2018-08-03T01:03:20.890Z,67.07
2018-08-03T01:08:08.093Z,67.54
2018-08-03T01:12:51.775Z,68.00
2018-08-03T01:17:35.183Z,68.60
2018-08-03T01:22:18.738Z,69.75
2018-08-03T01:27:02.276Z,68.87
2018-08-03T01:31:45.820Z,68.54
2018-08-03T01:36:30.705Z,68.59
2018-08-03T01:41:14.370Z,68.35
2018-08-03T01:45:59.088Z,69.76
2018-08-03T01:50:42.580Z,68.37
2018-08-03T01:55:26.067Z,69.00
2018-08-03T02:00:09.768Z,68.83
2018-08-03T02:04:53.305Z,68.17
2018-08-03T02:09:36.918Z,68.94
2018-08-03T02:14:20.515Z,68.94
2018-08-03T02:19:07.447Z,70.59
2018-08-03T02:23:51.071Z,69.47
2018-08-03T02:28:35.798Z,69.20
2018-08-03T02:33:19.440Z,70.41
2018-08-03T02:38:03.039Z,70.61
2018-08-03T02:42:46.505Z,70.27
2018-08-03T02:47:30.113Z,69.42
2018-08-03T02:52:13.781Z,70.69
2018-08-03T02:56:58.496Z,70.38
2018-08-03T03:01:42.079Z,71.16
2018-08-03T03:06:25.800Z,72.12
2018-08-03T03:11:09.491Z,71.88
2018-08-03T03:15:56.291Z,71.29
2018-08-03T03:20:39.818Z,72.57
2018-08-03T03:25:25.059Z,71.88
2018-08-03T03:30:09.555Z,73.03
2018-08-03T03:34:53.093Z,71.71
2018-08-03T03:39:37.648Z,72.60
2018-08-03T03:44:21.339Z,71.67
2018-08-03T03:49:08.799Z,71.67
2018-08-03T03:53:52.193Z,71.79
2018-08-03T03:58:35.849Z,73.87
2018-08-03T04:03:19.509Z,72.91
2018-08-03T04:08:04.194Z,72.59
2018-08-03T04:12:47.703Z,74.23
2018-08-03T04:17:31.521Z,73.42
2018-08-03T04:22:15.102Z,73.22
2018-08-03T04:26:59.845Z,72.57
2018-08-03T04:31:43.345Z,73.55
2018-08-03T04:36:27.132Z,73.58
2018-08-03T04:41:12.670Z,74.21
2018-08-03T04:45:56.903Z,75.74
2018-08-03T04:50:40.408Z,74.71
2018-08-03T04:55:27.657Z,75.28
2018-08-03T05:00:11.208Z,76.14
2018-08-03T05:04:54.716Z,75.85
2018-08-03T05:09:38.352Z,76.66
2018-08-03T05:14:21.945Z,75.40
2018-08-03T05:19:05.620Z,76.62
2018-08-03T05:23:49.265Z,76.01
2018-08-03T05:28:36.186Z,76.75
2018-08-03T05:33:19.777Z,77.81
2018-08-03T05:38:03.270Z,77.96
2018-08-03T05:42:46.789Z,78.11
2018-08-03T05:47:36.766Z,77.59
2018-08-03T05:52:20.401Z,78.07
2018-08-03T05:57:04.065Z,78.86
2018-08-03T06:01:47.775Z,78.09
2018-08-03T06:06:35.049Z,78.02
2018-08-03T06:11:18.694Z,78.21
2018-08-03T06:16:12.019Z,79.06
2018-08-03T06:20:59.926Z,78.44
2018-08-03T06:25:49.365Z,78.18
2018-08-03T06:30:32.892Z,79.10
2018-08-03T06:35:17.494Z,79.68
2018-08-03T06:40:01.008Z,78.34
2018-08-03T06:44:44.660Z,79.87
2018-08-03T06:49:28.086Z,79.26
2018-08-03T06:54:11.783Z,78.45
2018-08-03T06:58:56.382Z,78.08
2018-08-03T07:03:39.982Z,77.82
2018-08-03T07:08:24.801Z,77.54
2018-08-03T07:13:08.496Z,79.03
2018-08-03T07:17:52.468Z,77.73
2018-08-03T07:22:36.291Z,79.08
2018-08-03T07:27:20.090Z,78.41
2018-08-03T07:32:03.761Z,77.73
2018-08-03T07:36:47.532Z,76.66
2018-08-03T07:41:31.120Z,78.95
2018-08-03T07:46:14.987Z,78.81
2018-08-03T07:50:58.601Z,79.31
2018-08-03T07:55:43.170Z,78.29
2018-08-03T08:00:27.294Z,78.77
2018-08-03T08:05:13.311Z,77.71
2018-08-03T08:09:57.830Z,75.91
2018-08-03T08:14:41.686Z,78.74
2018-08-03T08:19:25.956Z,75.84
2018-08-03T08:24:09.549Z,75.70
2018-08-03T08:28:59.360Z,76.38
2018-08-03T08:33:42.873Z,75.52
2018-08-03T08:38:30.003Z,76.43
2018-08-03T08:43:13.695Z,76.77
2018-08-03T08:47:58.545Z,77.34
2018-08-03T08:52:42.401Z,78.29
2018-08-03T08:57:29.564Z,78.15
2018-08-03T09:02:12.983Z,77.08
2018-08-03T09:06:56.817Z,78.13
2018-08-03T09:11:40.397Z,77.77
2018-08-03T09:16:27.233Z,79.19
2018-08-03T09:21:10.761Z,79.08
2018-08-03T09:25:54.350Z,74.32
2018-08-03T09:30:37.799Z,78.00
2018-08-03T09:35:22.120Z,70.60
2018-08-03T09:40:05.739Z,71.61
2018-08-03T09:44:53.357Z,73.63
2018-08-03T09:49:37.017Z,68.00
2018-08-03T09:54:24.229Z,73.09
2018-08-03T09:59:07.814Z,73.95
2018-08-03T10:03:51.551Z,75.60
2018-08-03T10:08:37.167Z,74.13
2018-08-03T10:13:20.785Z,71.71
2018-08-03T10:18:07.362Z,72.65
2018-08-03T10:24:20.482Z,73.20
2018-08-03T10:29:04.151Z,69.18
2018-08-03T10:33:47.744Z,71.25
2018-08-03T10:38:32.263Z,71.63
2018-08-03T10:43:15.832Z,67.12
2018-08-03T10:48:00.355Z,67.28
2018-08-03T10:52:44.486Z,63.75
2018-08-03T10:57:28.130Z,62.71
2018-08-03T11:02:11.602Z,62.88
2018-08-03T11:06:58.984Z,61.87
2018-08-03T11:11:42.489Z,59.71
2018-08-03T11:16:29.454Z,61.08
2018-08-03T11:21:13.106Z,54.15
2018-08-03T11:26:00.354Z,58.04
2018-08-03T11:30:43.774Z,54.95
2018-08-03T11:35:27.663Z,54.24
2018-08-03T11:40:11.402Z,53.71
2018-08-03T11:44:58.440Z,52.21
2018-08-03T11:49:41.853Z,54.42
2018-08-03T11:54:25.589Z,54.90
2018-08-03T11:59:09.186Z,50.36
2018-08-03T12:03:52.742Z,49.29
2018-08-03T12:08:45.643Z,50.06
2018-08-03T12:13:32.251Z,51.08
2018-08-03T12:18:17.112Z,52.13
2018-08-03T12:23:00.739Z,53.56
2018-08-03T12:27:50.010Z,48.67
2018-08-03T12:32:33.620Z,49.84
2018-08-03T12:37:23.101Z,47.52
2018-08-03T12:42:06.729Z,48.09
2018-08-03T12:46:50.635Z,49.92
2018-08-03T12:51:34.144Z,47.33
2018-08-03T12:56:21.688Z,47.64
2018-08-03T13:01:05.288Z,49.62
2018-08-03T13:05:52.298Z,48.00
2018-08-03T13:10:35.758Z,48.03
2018-08-03T13:15:19.279Z,44.89
2018-08-03T13:20:02.750Z,45.71
2018-08-03T13:24:49.982Z,45.81
2018-08-03T13:29:33.687Z,45.24
2018-08-03T13:34:20.284Z,45.16
2018-08-03T13:39:06.018Z,44.25
2018-08-03T13:43:50.752Z,44.19
2018-08-03T13:48:34.850Z,45.12
2018-08-03T13:53:18.335Z,43.27
2018-08-03T13:58:02.237Z,44.95
2018-08-03T14:02:45.730Z,44.85
2018-08-03T14:07:29.337Z,45.54
2018-08-03T14:12:12.868Z,45.85
2018-08-03T14:16:57.271Z,45.09
2018-08-03T14:21:40.896Z,45.44
2018-08-03T14:26:25.336Z,44.43
2018-08-03T14:31:08.833Z,45.11
2018-08-03T14:35:52.495Z,46.15
2018-08-03T14:40:36.162Z,45.61
2018-08-03T14:45:20.782Z,43.88
2018-08-03T14:50:04.958Z,44.41
2018-08-03T14:54:51.719Z,45.11
2018-08-03T14:59:35.118Z,46.45
2018-08-03T15:04:21.713Z,45.88
2018-08-03T15:09:10.245Z,46.40
2018-08-03T15:13:54.815Z,47.91
2018-08-03T15:18:38.354Z,48.38
2018-08-03T15:23:21.930Z,49.52
2018-08-03T15:28:05.642Z,48.96
2018-08-03T15:32:49.288Z,50.19
2018-08-03T15:37:39.195Z,50.19
2018-08-03T15:42:22.689Z,49.96
2018-08-03T15:47:06.402Z,48.68
2018-08-03T15:51:50.019Z,49.07
2018-08-03T15:56:34.491Z,48.10
2018-08-03T16:01:22.205Z,49.79
2018-08-03T16:06:09.752Z,50.65
2018-08-03T16:10:53.313Z,50.88
2018-08-03T16:15:37.089Z,51.95
2018-08-03T16:20:20.654Z,52.32
2018-08-03T16:25:05.913Z,53.60
2018-08-03T16:29:50.415Z,53.58
2018-08-03T16:34:34.249Z,54.43
2018-08-03T16:39:18.730Z,53.48
2018-08-03T16:44:05.809Z,55.01
2018-08-03T16:48:52.290Z,54.17
2018-08-03T16:53:41.157Z,55.17
2018-08-03T16:58:24.798Z,55.69
2018-08-03T17:03:08.530Z,56.55
2018-08-03T17:07:52.327Z,56.70
2018-08-03T17:12:36.030Z,56.22
2018-08-03T17:17:24.553Z,58.75
2018-08-03T17:22:08.070Z,57.97
2018-08-03T17:26:55.156Z,58.63
2018-08-03T17:31:38.794Z,58.24
2018-08-03T17:36:22.802Z,58.92
2018-08-03T17:41:06.466Z,57.59
2018-08-03T17:45:53.752Z,56.78
2018-08-03T17:50:37.367Z,56.01
2018-08-03T17:55:21.929Z,56.43
2018-08-03T18:00:05.603Z,56.54
2018-08-03T18:04:54.756Z,56.51
2018-08-03T18:09:38.250Z,54.77
2018-08-03T18:14:25.512Z,53.81
2018-08-03T18:19:08.960Z,54.75
2018-08-03T18:23:56.409Z,53.98
2018-08-03T18:28:40.242Z,56.46
2018-08-03T18:33:27.343Z,54.91
2018-08-03T18:38:12.389Z,55.81
2018-08-03T18:42:58.545Z,55.76
2018-08-03T18:47:43.832Z,55.53
2018-08-03T18:52:28.260Z,57.26
2018-08-03T18:57:12.227Z,56.79
2018-08-03T19:01:56.132Z,55.08
2018-08-03T19:06:39.953Z,56.56
2018-08-03T19:11:23.694Z,55.47
2018-08-03T19:16:10.711Z,56.00
2018-08-03T19:20:54.398Z,55.60
2018-08-03T19:25:38.789Z,54.31
2018-08-03T19:30:22.226Z,55.36
2018-08-03T19:35:05.991Z,55.74
2018-08-03T19:39:49.593Z,56.19
2018-08-03T19:44:34.259Z,56.07
2018-08-03T19:49:17.857Z,55.29
2018-08-03T19:54:06.610Z,57.06
2018-08-03T19:58:50.472Z,56.37
2018-08-03T20:03:37.320Z,57.65
2018-08-03T20:08:20.913Z,57.61
2018-08-03T20:13:04.526Z,56.98
2018-08-03T20:17:48.003Z,57.72
2018-08-03T20:22:31.547Z,58.38
2018-08-03T20:27:17.025Z,59.86
2018-08-03T20:32:00.516Z,58.89
2018-08-03T20:36:44.157Z,59.08
2018-08-03T20:41:27.818Z,59.46
2018-08-03T20:46:14.308Z,58.66
2018-08-03T20:50:57.805Z,59.54
2018-08-03T20:55:46.926Z,60.05
2018-08-03T21:00:30.585Z,59.17
2018-08-03T21:05:18.849Z,59.74
2018-08-03T21:10:02.300Z,60.18
2018-08-03T21:14:49.457Z,60.50
2018-08-03T21:19:33.049Z,61.87
2018-08-03T21:24:19.543Z,63.37
2018-08-03T21:29:03.162Z,63.83
2018-08-03T21:33:49.851Z,63.45
2018-08-03T21:38:33.296Z,65.31
2018-08-03T21:43:17.839Z,65.07
2018-08-03T21:48:01.450Z,64.63
2018-08-03T21:52:45.019Z,65.24
2018-08-03T21:57:29.169Z,65.83
2018-08-03T22:02:12.541Z,65.72
2018-08-03T22:06:56.400Z,66.26
2018-08-03T22:11:39.849Z,67.47
2018-08-03T22:16:27.194Z,67.01
2018-08-03T22:21:10.727Z,68.36
2018-08-03T22:25:58.236Z,67.76
2018-08-03T22:30:41.838Z,67.72
2018-08-03T22:35:25.354Z,68.36
2018-08-03T22:40:08.857Z,68.45
2018-08-03T22:44:56.036Z,68.75
2018-08-03T22:49:39.734Z,68.26
2018-08-03T22:54:24.395Z,68.74
2018-08-03T22:59:07.984Z,68.28
2018-08-03T23:03:55.397Z,67.80
2018-08-03T23:08:38.901Z,68.72
2018-08-03T23:13:26.022Z,68.47
2018-08-03T23:18:09.470Z,68.49
2018-08-03T23:22:53.208Z,68.15
2018-08-03T23:27:36.726Z,68.75
2018-08-03T23:32:21.525Z,68.29
2018-08-03T23:37:05.057Z,67.59
2018-08-03T23:41:48.557Z,68.07
2018-08-03T23:46:35.800Z,68.04
2018-08-03T23:51:19.153Z,69.09
2018-08-03T23:56:03.885Z,68.59
